Time;durP1;ratioP1;P1;durP2;ratioP2;P2;SDS_P1;SDS_P2;PMS_P1;PMS_P2;Temp;Humidity;BMP_temperature;BMP_pressure;BME280_temperature;BME280_humidity;BME280_pressure;Samples;Min_cycle;Max_cycle;Signal;HPM_P1;HPM_P2
2023/08/12 00:01:38;;;;;;;2.85;2.55;;;;;;;18.93;51.67;95537.19;5086753;28;20132;-92
2023/08/12 00:04:04;;;;;;;3.65;2.47;;;;;;;18.90;51.39;95540.94;5075534;28;20024;-92
2023/08/12 00:06:30;;;;;;;3.20;2.33;;;;;;;18.91;51.26;95540.44;5093948;28;20036;-91
2023/08/12 00:08:55;;;;;;;4.38;2.85;;;;;;;18.88;51.19;95541.41;5086246;28;20451;-91
2023/08/12 00:11:20;;;;;;;5.20;2.63;;;;;;;18.90;51.37;95544.47;5069609;28;20024;-91
2023/08/12 00:13:46;;;;;;;3.10;2.45;;;;;;;18.82;51.39;95535.72;5085775;28;20142;-91
2023/08/12 00:16:12;;;;;;;3.17;2.53;;;;;;;18.87;51.36;95528.72;5069800;28;20071;-92
2023/08/12 00:18:37;;;;;;;2.65;2.22;;;;;;;18.86;51.32;95529.97;5085771;28;20036;-91
2023/08/12 00:21:10;;;;;;;3.80;2.50;;;;;;;18.74;51.51;95528.19;5069592;28;20032;-91
2023/08/12 00:23:38;;;;;;;3.67;2.40;;;;;;;18.71;51.04;95538.28;5086578;28;20035;-91
2023/08/12 00:26:03;;;;;;;2.75;2.17;;;;;;;18.67;51.43;95543.25;5085862;28;20046;-90
2023/08/12 00:28:29;;;;;;;3.67;2.63;;;;;;;18.69;51.42;95540.00;5086647;28;20028;-91
2023/08/12 00:30:54;;;;;;;3.33;2.58;;;;;;;18.68;51.46;95532.91;5068632;28;20020;-91
2023/08/12 00:33:19;;;;;;;4.38;2.90;;;;;;;18.69;51.53;95532.41;5069384;28;20052;-90
2023/08/12 00:35:45;;;;;;;3.70;2.53;;;;;;;18.72;51.41;95530.72;5068699;28;20021;-91
2023/08/12 00:38:10;;;;;;;3.65;2.53;;;;;;;18.69;51.41;95531.63;5069758;28;20032;-91
2023/08/12 00:40:36;;;;;;;2.95;2.55;;;;;;;18.63;51.74;95527.94;5085968;28;20349;-90
2023/08/12 00:43:01;;;;;;;4.35;2.78;;;;;;;18.62;51.45;95529.19;5085950;28;20462;-90
2023/08/12 00:45:27;;;;;;;3.22;2.63;;;;;;;18.59;51.42;95533.72;5069397;28;20027;-91
2023/08/12 00:47:53;;;;;;;4.38;2.78;;;;;;;18.60;51.31;95520.56;5075948;28;20031;-91
2023/08/12 00:50:18;;;;;;;4.53;2.22;;;;;;;18.54;51.39;95526.00;5090196;28;20028;-91
2023/08/12 00:52:44;;;;;;;4.88;2.58;;;;;;;18.47;51.43;95523.59;5068713;28;20032;-91
2023/08/12 00:55:10;;;;;;;2.70;2.22;;;;;;;18.44;51.36;95528.09;5069337;28;20028;-90
2023/08/12 00:57:35;;;;;;;5.90;2.55;;;;;;;18.40;51.42;95521.91;5068364;28;20406;-91
2023/08/12 01:00:03;;;;;;;3.35;2.35;;;;;;;18.44;50.99;95516.94;5086245;28;20031;-89
2023/08/12 01:02:29;;;;;;;3.78;2.20;;;;;;;18.41;51.17;95511.56;5077213;28;20020;-90
2023/08/12 01:04:55;;;;;;;2.88;2.08;;;;;;;18.37;50.92;95514.53;5094795;28;20376;-90
2023/08/12 01:07:20;;;;;;;2.50;2.30;;;;;;;18.42;50.94;95516.66;5085934;28;20028;-90
2023/08/12 01:09:46;;;;;;;3.47;2.05;;;;;;;18.43;50.78;95514.66;5086648;28;20040;-91
2023/08/12 01:12:29;;;;;;;3.53;2.28;;;;;;;18.35;50.96;95510.66;5088957;28;20465;-89
2023/08/12 01:15:00;;;;;;;3.05;2.40;;;;;;;18.33;50.82;95505.59;5077665;28;20443;-91
2023/08/12 01:17:26;;;;;;;4.20;2.20;;;;;;;18.42;50.82;95513.88;5102399;28;20554;-91
2023/08/12 01:19:52;;;;;;;3.45;2.67;;;;;;;18.37;50.92;95508.97;5073563;28;20020;-90
2023/08/12 01:22:20;;;;;;;2.83;2.35;;;;;;;18.39;50.93;95514.81;5088367;28;20047;-90
2023/08/12 01:24:46;;;;;;;6.93;2.58;;;;;;;18.39;51.36;95514.81;5072109;28;20032;-90
2023/08/12 01:27:12;;;;;;;3.33;2.40;;;;;;;18.39;51.78;95517.59;5071846;28;20024;-91
2023/08/12 01:29:41;;;;;;;4.00;2.50;;;;;;;18.33;51.46;95511.16;5090914;28;20035;-90
2023/08/12 01:32:37;;;;;;;3.72;2.28;;;;;;;18.26;51.84;95523.41;5089039;28;20059;-90
2023/08/12 01:35:21;;;;;;;4.40;2.53;;;;;;;18.14;52.27;95509.72;5071781;28;20577;-90
2023/08/12 01:37:50;;;;;;;3.45;2.55;;;;;;;18.12;52.27;95509.41;5089385;28;20476;-90
2023/08/12 01:40:17;;;;;;;2.78;2.00;;;;;;;18.08;52.34;95500.50;5071505;28;20020;-90
2023/08/12 01:42:42;;;;;;;2.50;2.30;;;;;;;18.15;52.65;95508.50;5073007;28;20536;-89
2023/08/12 01:45:08;;;;;;;3.75;2.40;;;;;;;18.15;52.56;95511.28;5076381;28;20028;-90
2023/08/12 01:47:33;;;;;;;5.18;2.40;;;;;;;18.13;52.52;95508.19;5098438;28;20432;-90
2023/08/12 01:49:59;;;;;;;4.57;2.45;;;;;;;18.11;52.50;95507.88;5099846;28;20508;-90
2023/08/12 01:52:25;;;;;;;2.88;2.08;;;;;;;18.13;52.52;95516.53;5101477;28;20059;-89
2023/08/12 01:54:50;;;;;;;4.32;2.38;;;;;;;18.10;52.43;95520.25;5090042;28;20024;-90
2023/08/12 01:57:16;;;;;;;3.00;2.60;;;;;;;18.01;52.42;95507.94;5089034;28;20111;-89
2023/08/12 01:59:43;;;;;;;5.25;2.70;;;;;;;18.06;52.87;95514.84;5073845;28;20027;-90
2023/08/12 02:02:09;;;;;;;2.80;2.50;;;;;;;18.09;52.42;95513.16;5088486;28;20489;-90
2023/08/12 02:04:37;;;;;;;4.70;2.80;;;;;;;18.03;52.68;95516.59;5091273;28;20031;-90
2023/08/12 02:07:02;;;;;;;3.40;2.80;;;;;;;17.96;53.03;95516.94;5089329;28;20028;-90
2023/08/12 02:09:27;;;;;;;4.00;2.67;;;;;;;18.01;52.87;95521.09;5072214;28;20040;-91
2023/08/12 02:11:53;;;;;;;3.17;2.80;;;;;;;17.93;52.70;95515.09;5095991;28;20103;-90
2023/08/12 02:14:20;;;;;;;4.63;2.42;;;;;;;17.81;52.84;95507.72;5082872;28;20063;-90
2023/08/12 02:16:45;;;;;;;3.15;2.63;;;;;;;17.92;52.63;95516.34;5094759;28;20431;-91
2023/08/12 02:19:11;;;;;;;4.50;2.85;;;;;;;17.94;52.38;95511.06;5089042;28;20021;-90
2023/08/12 02:21:36;;;;;;;4.30;2.70;;;;;;;17.88;52.59;95506.63;5088619;28;20034;-90
2023/08/12 02:24:02;;;;;;;3.83;2.47;;;;;;;17.88;52.36;95504.59;5088601;28;20016;-90
2023/08/12 02:26:27;;;;;;;4.40;2.53;;;;;;;17.88;52.66;95506.63;5088194;28;20067;-91
2023/08/12 02:28:52;;;;;;;3.60;2.40;;;;;;;17.88;52.57;95504.59;5073387;28;20119;-92
2023/08/12 02:31:18;;;;;;;4.10;2.85;;;;;;;17.91;52.74;95516.81;5078845;28;20446;-91
2023/08/12 02:33:43;;;;;;;4.72;2.65;;;;;;;17.88;52.38;95506.63;5071771;28;20476;-90
2023/08/12 02:36:09;;;;;;;4.07;2.60;;;;;;;17.80;52.49;95506.19;5087243;28;20024;-91
2023/08/12 02:38:34;;;;;;;4.22;2.50;;;;;;;17.76;53.02;95506.34;5071692;28;20185;-90
2023/08/12 02:41:00;;;;;;;3.47;2.42;;;;;;;17.82;52.71;95514.06;5088210;28;20039;-91
2023/08/12 02:43:25;;;;;;;3.47;2.38;;;;;;;17.80;52.80;95508.97;5087975;28;20097;-90
2023/08/12 02:45:51;;;;;;;5.43;2.60;;;;;;;17.78;52.62;95522.59;5070216;28;20062;-90
2023/08/12 02:48:16;;;;;;;3.40;2.80;;;;;;;17.70;52.92;95516.56;5086767;28;20028;-91
2023/08/12 02:50:41;;;;;;;3.15;2.50;;;;;;;17.71;52.52;95514.53;5072774;28;20020;-89
2023/08/12 02:53:08;;;;;;;2.80;2.25;;;;;;;17.70;52.69;95519.34;5071086;28;20585;-90
2023/08/12 02:55:33;;;;;;;3.80;2.50;;;;;;;17.76;52.63;95523.03;5097159;28;20114;-90
2023/08/12 02:58:00;;;;;;;4.55;2.58;;;;;;;17.78;53.01;95528.16;5093126;28;20109;-90
2023/08/12 03:00:25;;;;;;;5.13;3.30;;;;;;;17.78;53.12;95525.38;5070786;28;20113;-89
2023/08/12 03:02:51;;;;;;;4.90;2.72;;;;;;;17.76;53.10;95528.59;5070055;28;20074;-90
2023/08/12 03:05:16;;;;;;;4.05;2.67;;;;;;;17.72;53.01;95527.22;5070493;28;20487;-91
2023/08/12 03:07:41;;;;;;;4.28;2.38;;;;;;;17.69;53.35;95519.81;5088555;28;20024;-90
2023/08/12 03:10:07;;;;;;;4.07;2.90;;;;;;;17.60;54.21;95517.81;5087763;28;20047;-92
2023/08/12 03:12:33;;;;;;;3.13;2.67;;;;;;;17.63;54.08;95535.59;5087226;28;20032;-91
2023/08/12 03:14:58;;;;;;;5.07;3.03;;;;;;;17.61;54.48;95536.06;5070653;28;20105;-90
2023/08/12 03:17:24;;;;;;;4.90;3.03;;;;;;;17.56;54.44;95536.69;5088480;28;20028;-90
2023/08/12 03:19:51;;;;;;;4.88;3.10;;;;;;;17.51;54.21;95540.09;5086613;28;20391;-90
2023/08/12 03:22:16;;;;;;;4.65;3.15;;;;;;;17.48;54.53;95539.00;5088371;28;20120;-90
2023/08/12 03:24:41;;;;;;;4.25;3.00;;;;;;;17.43;54.58;95539.66;5086647;28;20028;-90
2023/08/12 03:27:07;;;;;;;3.78;3.15;;;;;;;17.42;54.14;95534.56;5087783;28;20505;-90
2023/08/12 03:29:32;;;;;;;7.55;3.67;;;;;;;17.43;54.10;95528.56;5087645;28;20024;-90
2023/08/12 03:31:58;;;;;;;6.38;3.67;;;;;;;17.34;54.33;95528.56;5086229;28;20409;-89
2023/08/12 03:34:23;;;;;;;4.50;3.63;;;;;;;17.37;54.24;95529.63;5085833;28;20027;-90
2023/08/12 03:36:50;;;;;;;7.93;3.80;;;;;;;17.35;54.46;95535.66;5085584;28;20039;-90
2023/08/12 03:39:16;;;;;;;5.78;4.55;;;;;;;17.27;54.59;95528.13;5087207;28;20478;-89
2023/08/12 03:41:41;;;;;;;7.65;4.30;;;;;;;17.29;54.77;95539.53;5087425;28;20110;-91
2023/08/12 03:44:06;;;;;;;7.68;4.20;;;;;;;17.35;55.03;95540.44;5079204;28;20067;-90
2023/08/12 03:46:32;;;;;;;5.03;3.88;;;;;;;17.32;55.19;95544.16;5070822;28;20067;-90
2023/08/12 03:48:58;;;;;;;5.65;4.05;;;;;;;17.29;55.05;95545.09;5087392;28;20024;-90
2023/08/12 03:51:23;;;;;;;5.50;3.92;;;;;;;17.26;55.23;95535.66;5086789;28;20050;-90
2023/08/12 03:53:48;;;;;;;6.47;4.10;;;;;;;17.25;55.44;95543.25;5085780;28;20114;-90
2023/08/12 03:56:16;;;;;;;5.50;3.85;;;;;;;17.27;55.46;95542.78;5086688;28;20024;-90
2023/08/12 03:58:43;;;;;;;5.63;3.83;;;;;;;17.28;55.69;95540.78;5091537;28;20020;-90
2023/08/12 04:01:09;;;;;;;7.90;4.05;;;;;;;17.25;55.65;95543.25;5080761;28;20171;-91
2023/08/12 04:03:34;;;;;;;6.88;3.90;;;;;;;17.28;55.86;95543.56;5088060;28;20401;-90
2023/08/12 04:06:00;;;;;;;7.60;3.97;;;;;;;17.27;56.04;95544.81;5087814;28;20081;-91
2023/08/12 04:08:25;;;;;;;6.70;3.92;;;;;;;17.25;56.14;95543.25;5070390;28;20094;-91
2023/08/12 04:10:51;;;;;;;7.05;3.50;;;;;;;17.28;56.11;95544.31;5087190;28;20048;-91
2023/08/12 04:13:17;;;;;;;7.75;3.95;;;;;;;17.28;56.26;95544.31;5069787;28;20126;-90
2023/08/12 04:15:43;;;;;;;7.85;3.88;;;;;;;17.30;57.03;95547.41;5085440;28;20088;-91
2023/08/12 04:18:08;;;;;;;5.55;3.13;;;;;;;17.29;56.35;95547.88;5086600;28;20110;-91
2023/08/12 04:20:34;;;;;;;6.43;3.20;;;;;;;17.29;56.53;95547.88;5085015;28;20063;-91
2023/08/12 04:22:59;;;;;;;5.90;3.65;;;;;;;17.25;56.01;95557.13;5086544;28;20124;-91
2023/08/12 04:25:25;;;;;;;5.93;3.40;;;;;;;17.25;56.02;95556.38;5093341;28;20100;-89
2023/08/12 04:27:50;;;;;;;4.32;3.20;;;;;;;17.25;55.51;95561.91;5080837;28;20040;-90
2023/08/12 04:30:16;;;;;;;5.97;3.50;;;;;;;17.23;55.58;95558.84;5074352;28;20050;-89
2023/08/12 04:32:42;;;;;;;3.80;3.10;;;;;;;17.17;55.46;95555.16;5069131;28;20040;-89
2023/08/12 04:35:08;;;;;;;6.45;3.28;;;;;;;17.18;54.92;95560.22;5087935;28;20111;-90
2023/08/12 04:37:33;;;;;;;8.10;3.10;;;;;;;17.11;55.24;95554.22;5085322;28;20044;-90
2023/08/12 04:39:59;;;;;;;5.93;3.15;;;;;;;17.15;54.95;95557.63;5086499;28;20052;-91
2023/08/12 04:42:24;;;;;;;4.35;2.80;;;;;;;17.12;55.10;95559.31;5068762;28;20066;-89
2023/08/12 04:44:50;;;;;;;5.43;3.15;;;;;;;17.10;55.03;95549.91;5085765;28;20478;-91
2023/08/12 04:47:15;;;;;;;5.68;3.30;;;;;;;17.07;55.07;95551.59;5091040;28;20425;-91
2023/08/12 04:49:41;;;;;;;19.25;4.07;;;;;;;17.12;55.25;95548.22;5083325;28;20026;-91
2023/08/12 04:52:06;;;;;;;9.07;3.30;;;;;;;17.14;55.27;95544.97;5081146;28;20073;-91
2023/08/12 04:54:32;;;;;;;6.70;3.35;;;;;;;17.10;55.45;95550.69;5090260;28;20457;-91
2023/08/12 04:56:59;;;;;;;5.68;3.25;;;;;;;17.23;54.89;95561.63;5078302;28;20024;-90
2023/08/12 04:59:24;;;;;;;5.07;3.42;;;;;;;17.17;55.55;95560.72;5089462;28;20475;-88
2023/08/12 05:01:50;;;;;;;7.22;3.70;;;;;;;17.14;55.33;95556.84;5089142;28;20104;-88
2023/08/12 05:04:15;;;;;;;5.28;3.00;;;;;;;17.17;55.44;95558.69;5079398;28;20024;-87
2023/08/12 05:06:41;;;;;;;6.68;3.70;;;;;;;17.16;55.27;95554.38;5071218;28;20032;-87
2023/08/12 05:09:06;;;;;;;5.85;3.13;;;;;;;17.07;55.92;95553.63;5088626;28;20518;-87
2023/08/12 05:11:32;;;;;;;4.72;3.33;;;;;;;17.15;55.61;95558.41;5071302;28;20402;-87
2023/08/12 05:13:57;;;;;;;3.30;2.65;;;;;;;17.21;56.06;95556.53;5089259;28;20055;-85
2023/08/12 05:16:22;;;;;;;7.10;3.00;;;;;;;17.26;55.91;95557.91;5088700;28;20410;-87
2023/08/12 05:18:48;;;;;;;4.03;3.35;;;;;;;17.37;55.88;95560.19;5090178;28;20085;-86
2023/08/12 05:21:13;;;;;;;5.72;3.28;;;;;;;17.34;56.26;95563.94;5088180;28;20070;-86
2023/08/12 05:23:38;;;;;;;4.40;3.40;;;;;;;17.41;56.35;95569.16;5071133;28;20020;-87
2023/08/12 05:26:04;;;;;;;6.18;3.70;;;;;;;17.49;55.91;95573.13;5071912;28;20076;-87
2023/08/12 05:28:30;;;;;;;5.18;3.50;;;;;;;17.57;55.75;95570.81;5088865;28;20473;-87
2023/08/12 05:30:55;;;;;;;7.15;3.42;;;;;;;17.63;55.27;95575.28;5071813;28;20024;-88
2023/08/12 05:33:21;;;;;;;5.82;3.47;;;;;;;17.62;55.58;95579.31;5087742;28;20020;-88
2023/08/12 05:35:50;;;;;;;4.13;3.38;;;;;;;17.60;55.85;95576.19;5088555;28;20136;-86
2023/08/12 05:38:17;;;;;;;6.38;3.42;;;;;;;17.63;55.63;95580.84;5087290;28;20028;-88
2023/08/12 05:40:43;;;;;;;5.22;3.15;;;;;;;17.63;55.68;95569.72;5087925;28;20039;-86
2023/08/12 05:43:08;;;;;;;3.72;3.10;;;;;;;17.67;55.79;95580.69;5088056;28;20032;-86
2023/08/12 05:45:34;;;;;;;4.43;3.20;;;;;;;17.70;55.35;95571.38;5088407;28;20105;-86
2023/08/12 05:47:59;;;;;;;6.10;3.70;;;;;;;17.75;55.53;95579.13;5071173;28;20047;-87
2023/08/12 05:50:25;;;;;;;5.68;3.20;;;;;;;17.77;55.12;95573.84;5069999;28;20478;-87
2023/08/12 05:52:51;;;;;;;5.70;2.97;;;;;;;17.81;54.83;95570.94;5054769;28;20068;-87
2023/08/12 05:55:16;;;;;;;5.97;3.38;;;;;;;17.80;54.93;95566.59;5086745;28;20429;-86
2023/08/12 05:57:42;;;;;;;3.67;2.90;;;;;;;17.85;54.68;95568.75;5087967;28;20088;-86
2023/08/12 06:00:08;;;;;;;9.07;3.35;;;;;;;17.83;54.89;95565.66;5087561;28;20024;-87
2023/08/12 06:02:33;;;;;;;6.45;3.40;;;;;;;17.85;54.75;95558.41;5088487;28;20024;-87
2023/08/12 06:04:58;;;;;;;5.43;3.17;;;;;;;17.89;54.84;95574.91;5070585;28;20489;-86
2023/08/12 06:07:24;;;;;;;3.85;3.10;;;;;;;17.91;54.69;95558.53;5086692;28;20028;-86
2023/08/12 06:09:50;;;;;;;4.72;3.13;;;;;;;17.96;54.55;95558.66;5077184;28;20040;-87
2023/08/12 06:12:16;;;;;;;4.60;2.70;;;;;;;18.02;53.96;95565.13;5086046;28;20038;-87
2023/08/12 06:14:41;;;;;;;4.45;2.97;;;;;;;18.08;54.25;95556.91;5087567;28;20020;-86
2023/08/12 06:17:07;;;;;;;4.55;3.15;;;;;;;18.13;53.81;95556.25;5069596;28;20116;-86
2023/08/12 06:19:33;;;;;;;4.63;3.00;;;;;;;18.16;53.93;95554.53;5086800;28;20115;-86
2023/08/12 06:21:58;;;;;;;4.75;2.95;;;;;;;18.22;54.12;95550.63;5087025;28;20252;-87
2023/08/12 06:24:24;;;;;;;4.10;2.80;;;;;;;18.33;53.36;95552.13;5087387;28;20028;-86
2023/08/12 06:26:49;;;;;;;2.78;2.42;;;;;;;18.37;53.12;95559.06;5070180;28;20020;-87
2023/08/12 06:29:14;;;;;;;4.47;3.00;;;;;;;18.40;52.51;95560.88;5086137;28;20027;-86
2023/08/12 06:31:40;;;;;;;4.40;2.58;;;;;;;18.49;52.59;95558.06;5087267;28;20066;-86
2023/08/12 06:34:05;;;;;;;5.30;3.38;;;;;;;18.56;52.32;95549.34;5069816;28;20028;-87
2023/08/12 06:36:31;;;;;;;3.63;2.70;;;;;;;18.56;52.19;95535.41;5069897;28;20024;-86
2023/08/12 06:38:57;;;;;;;5.57;3.33;;;;;;;18.65;52.32;95540.16;5086512;28;20398;-87
2023/08/12 06:41:22;;;;;;;5.00;3.00;;;;;;;18.69;52.06;95535.19;5069176;28;20071;-86
2023/08/12 06:43:47;;;;;;;4.90;3.05;;;;;;;18.78;51.68;95534.38;5069613;28;20039;-86
2023/08/12 06:46:13;;;;;;;4.70;2.80;;;;;;;18.83;51.62;95526.13;5068871;28;20119;-86
2023/08/12 06:48:39;;;;;;;4.30;3.25;;;;;;;18.96;51.49;95539.78;5086444;28;20058;-87
2023/08/12 06:51:10;;;;;;;4.15;2.95;;;;;;;19.01;50.92;95533.53;5068712;28;20024;-86
2023/08/12 06:53:37;;;;;;;3.83;2.70;;;;;;;19.06;51.11;95534.91;5086849;28;20103;-86
2023/08/12 06:56:02;;;;;;;4.45;3.63;;;;;;;19.12;51.36;95533.00;5085860;28;20499;-87
2023/08/12 06:58:28;;;;;;;3.92;3.20;;;;;;;19.23;50.98;95533.19;5068464;28;20051;-87
2023/08/12 07:00:53;;;;;;;5.05;2.90;;;;;;;19.32;50.85;95533.09;5068988;28;20043;-86
2023/08/12 07:03:19;;;;;;;5.43;2.92;;;;;;;19.39;50.73;95531.19;5085309;28;20097;-87
2023/08/12 07:05:44;;;;;;;5.88;3.60;;;;;;;19.48;50.74;95531.06;5086316;28;20059;-88
2023/08/12 07:08:10;;;;;;;5.07;3.20;;;;;;;19.59;50.43;95528.50;5085219;28;20032;-88
2023/08/12 07:10:39;;;;;;;4.75;3.20;;;;;;;19.69;50.13;95524.38;5086580;28;20075;-86
2023/08/12 07:13:05;;;;;;;5.35;2.90;;;;;;;19.72;49.90;95526.19;5095120;28;20028;-88
2023/08/12 07:15:30;;;;;;;4.78;2.90;;;;;;;19.86;50.19;95522.59;5085899;28;20459;-87
2023/08/12 07:17:57;;;;;;;4.35;2.63;;;;;;;20.01;49.58;95530.94;5085803;28;20460;-87
2023/08/12 07:20:23;;;;;;;6.95;3.15;;;;;;;20.09;49.19;95528.53;5086394;28;20020;-87
2023/08/12 07:22:49;;;;;;;4.97;2.97;;;;;;;20.22;48.95;95531.75;5068987;28;20241;-87
2023/08/12 07:25:15;;;;;;;3.83;3.00;;;;;;;20.28;48.91;95529.81;5086255;28;20024;-88
2023/08/12 07:27:40;;;;;;;4.72;2.85;;;;;;;20.41;47.66;95529.47;5071277;28;20571;-86
2023/08/12 07:30:07;;;;;;;7.60;3.38;;;;;;;20.52;47.98;95526.06;5085717;28;20832;-87
2023/08/12 07:32:33;;;;;;;3.50;2.78;;;;;;;20.58;48.15;95530.47;5069304;28;20024;-87
2023/08/12 07:34:59;;;;;;;5.13;2.80;;;;;;;20.67;47.96;95529.59;5085321;28;20517;-87
2023/08/12 07:37:25;;;;;;;4.70;2.83;;;;;;;20.74;47.62;95517.97;5085076;28;20115;-86
2023/08/12 07:39:51;;;;;;;5.70;2.83;;;;;;;20.83;46.80;95526.22;5068770;28;20335;-87
2023/08/12 07:42:16;;;;;;;4.82;3.30;;;;;;;20.92;46.06;95516.91;5067726;28;20035;-88
2023/08/12 07:44:42;;;;;;;4.80;2.83;;;;;;;20.99;45.55;95519.28;5086565;28;20035;-88
2023/08/12 07:47:07;;;;;;;4.68;2.90;;;;;;;21.08;45.68;95510.75;5086412;28;20059;-88
2023/08/12 07:49:32;;;;;;;3.97;2.35;;;;;;;21.19;44.99;95512.88;5070758;28;20031;-87
2023/08/12 07:51:58;;;;;;;5.22;2.53;;;;;;;21.28;45.02;95511.97;5086995;28;20036;-88
2023/08/12 07:54:23;;;;;;;5.63;2.60;;;;;;;21.37;44.74;95503.41;5088788;28;20448;-87
2023/08/12 07:56:50;;;;;;;3.95;2.97;;;;;;;21.47;44.60;95508.34;5069689;28;20028;-87
2023/08/12 07:59:16;;;;;;;3.53;2.65;;;;;;;21.59;43.87;95502.84;5067563;28;20028;-87
2023/08/12 08:01:41;;;;;;;4.22;2.25;;;;;;;21.71;43.67;95504.47;5068806;28;20553;-88
2023/08/12 08:04:06;;;;;;;4.20;2.42;;;;;;;21.76;43.22;95492.56;5084267;28;20047;-88
2023/08/12 08:06:32;;;;;;;5.38;2.60;;;;;;;21.89;43.22;95495.69;5068781;28;20028;-87
2023/08/12 08:08:57;;;;;;;4.43;2.60;;;;;;;22.01;43.40;95504.94;5084185;28;20044;-88
2023/08/12 08:11:24;;;;;;;4.85;3.17;;;;;;;22.12;42.27;95504.28;5085107;28;20127;-88
2023/08/12 08:13:50;;;;;;;5.68;3.28;;;;;;;22.22;41.93;95502.81;5084569;28;20032;-87
2023/08/12 08:16:15;;;;;;;5.07;3.05;;;;;;;22.36;40.83;95499.06;5089068;28;20448;-87
2023/08/12 08:18:40;;;;;;;3.08;2.28;;;;;;;22.42;41.11;95502.69;5087063;28;20054;-87
2023/08/12 08:21:07;;;;;;;2.65;2.10;;;;;;;22.49;40.46;95496.59;5083930;28;20119;-87
2023/08/12 08:23:32;;;;;;;4.95;2.75;;;;;;;22.56;40.28;95498.16;5084785;28;20054;-87
2023/08/12 08:25:58;;;;;;;2.72;2.38;;;;;;;22.66;40.29;95496.69;5083943;28;20406;-88
2023/08/12 08:28:24;;;;;;;3.55;2.60;;;;;;;22.73;40.14;95499.00;5068362;28;20523;-88
2023/08/12 08:30:50;;;;;;;3.35;2.38;;;;;;;22.77;40.25;95495.94;5067165;28;20024;-88
2023/08/12 08:33:15;;;;;;;4.57;2.35;;;;;;;22.90;40.79;95482.25;5068652;28;20030;-87
2023/08/12 08:35:40;;;;;;;5.82;2.60;;;;;;;23.07;39.56;95493.50;5084569;28;20024;-88
2023/08/12 08:38:06;;;;;;;6.45;2.72;;;;;;;23.19;40.22;95495.06;5084976;28;20032;-88
2023/08/12 08:40:32;;;;;;;4.43;2.70;;;;;;;23.31;39.59;95490.25;5084269;28;20115;-87
2023/08/12 08:43:03;;;;;;;5.75;3.33;;;;;;;23.42;39.41;95478.28;5083977;28;20039;-88
2023/08/12 08:45:30;;;;;;;4.18;2.28;;;;;;;23.61;38.87;95481.31;5068604;28;20024;-87
2023/08/12 08:47:56;;;;;;;5.13;2.30;;;;;;;23.72;39.03;95478.56;5066993;28;20028;-88
2023/08/12 08:50:22;;;;;;;3.92;2.38;;;;;;;23.86;38.59;95480.34;5067749;28;20402;-88
2023/08/12 08:52:47;;;;;;;2.92;2.20;;;;;;;23.95;37.53;95477.25;5084713;28;20576;-88
2023/08/12 08:55:13;;;;;;;5.13;2.75;;;;;;;24.12;37.09;95477.22;5083996;28;20027;-88
2023/08/12 08:57:39;;;;;;;2.53;2.30;;;;;;;24.30;37.23;95482.28;5084474;28;20028;-88
2023/08/12 09:00:09;;;;;;;2.65;2.20;;;;;;;24.44;36.76;95469.25;5084364;28;20027;-90
2023/08/12 09:02:35;;;;;;;3.40;2.40;;;;;;;24.64;35.82;95476.59;5068471;28;20028;-89
2023/08/12 09:05:02;;;;;;;3.72;2.20;;;;;;;24.75;35.81;95478.59;5066840;28;20088;-89
2023/08/12 09:07:28;;;;;;;3.38;2.05;;;;;;;24.86;35.78;95468.06;5084822;28;20035;-89
2023/08/12 09:09:54;;;;;;;3.47;1.88;;;;;;;25.02;35.44;95466.44;5067249;28;20048;-89
2023/08/12 09:12:19;;;;;;;2.88;1.95;;;;;;;25.16;35.15;95459.72;5083987;28;20032;-88
2023/08/12 09:14:45;;;;;;;4.15;2.17;;;;;;;25.31;35.05;95459.38;5067946;28;20062;-89
2023/08/12 09:17:11;;;;;;;3.72;2.30;;;;;;;25.54;34.82;95456.41;5084160;28;20032;-89
2023/08/12 09:19:37;;;;;;;4.25;2.45;;;;;;;25.78;34.72;95452.88;5089701;28;20425;-89
2023/08/12 09:22:06;;;;;;;4.70;2.28;;;;;;;25.99;34.50;95459.59;5070897;28;20462;-89
2023/08/12 09:24:32;;;;;;;3.40;2.13;;;;;;;26.25;33.94;95458.31;5067861;28;20042;-89
2023/08/12 09:26:57;;;;;;;2.60;1.83;;;;;;;26.40;32.86;95448.16;5083819;28;20028;-89
2023/08/12 09:29:34;;;;;;;2.63;1.90;;;;;;;26.60;32.75;95446.16;5067845;28;20023;-89
2023/08/12 09:32:13;;;;;;;6.00;2.38;;;;;;;26.85;32.74;95435.59;5085363;28;20028;-89
2023/08/12 09:34:55;;;;;;;3.38;2.30;;;;;;;27.05;32.67;95440.69;5070421;28;20028;-90
2023/08/12 09:37:23;;;;;;;3.85;2.30;;;;;;;27.31;31.52;95434.44;5089195;28;20021;-89
2023/08/12 09:39:50;;;;;;;3.33;2.00;;;;;;;27.51;31.28;95433.84;5070927;28;20039;-90
2023/08/12 09:42:16;;;;;;;3.92;2.03;;;;;;;27.74;30.40;95433.50;5071238;28;20119;-88
2023/08/12 09:44:43;;;;;;;3.22;1.90;;;;;;;27.89;30.67;95430.19;5088252;28;20032;-89
2023/08/12 09:47:08;;;;;;;3.30;2.58;;;;;;;28.05;30.66;95426.31;5072606;28;20094;-89
2023/08/12 09:49:36;;;;;;;3.50;2.30;;;;;;;28.26;30.55;95429.22;5071456;28;20379;-90
2023/08/12 09:52:02;;;;;;;3.50;1.90;;;;;;;28.39;29.30;95428.50;5087618;28;20093;-89
2023/08/12 09:54:28;;;;;;;2.90;2.03;;;;;;;28.49;29.52;95430.34;5071698;28;20035;-90
2023/08/12 09:56:59;;;;;;;2.33;1.80;;;;;;;28.63;28.75;95421.88;5070516;28;20428;-90
2023/08/12 09:59:27;;;;;;;2.00;1.70;;;;;;;28.82;28.56;95416.81;5071576;28;20024;-90
2023/08/12 10:01:53;;;;;;;2.00;1.60;;;;;;;28.99;28.90;95410.81;5071350;28;20039;-90
2023/08/12 10:04:22;;;;;;;3.80;1.90;;;;;;;29.24;28.70;95412.03;5070886;28;20024;-90
2023/08/12 10:06:49;;;;;;;4.32;2.95;;;;;;;29.46;28.25;95404.31;5089004;28;20063;-91
2023/08/12 10:09:18;;;;;;;4.50;2.72;;;;;;;29.61;27.80;95404.50;5087706;28;20040;-90
2023/08/12 10:11:45;;;;;;;4.45;2.78;;;;;;;29.72;27.44;95400.63;5074001;28;20028;-90
2023/08/12 10:14:12;;;;;;;5.18;2.60;;;;;;;29.86;27.87;95399.97;5087615;28;20028;-90
2023/08/12 10:16:37;;;;;;;4.13;2.20;;;;;;;30.06;27.36;95392.75;5071048;28;20020;-89
2023/08/12 10:19:05;;;;;;;4.05;2.17;;;;;;;30.28;27.23;95397.09;5070225;28;20043;-90
2023/08/12 10:21:32;;;;;;;4.85;2.80;;;;;;;30.47;27.35;95391.16;5070614;28;20086;-90
2023/08/12 10:23:58;;;;;;;3.22;2.10;;;;;;;30.64;26.60;95396.34;5078273;28;20028;-90
2023/08/12 10:26:24;;;;;;;2.38;1.80;;;;;;;30.85;25.24;95397.03;5070450;28;20038;-90
2023/08/12 10:28:51;;;;;;;2.85;1.85;;;;;;;30.95;25.02;95388.72;5088396;28;20028;-90
2023/08/12 10:31:18;;;;;;;4.03;2.00;;;;;;;31.15;24.61;95392.78;5069951;28;20024;-91
2023/08/12 10:33:44;;;;;;;3.88;1.90;;;;;;;31.25;24.73;95379.53;5088266;28;20020;-90
2023/08/12 10:36:09;;;;;;;3.00;1.88;;;;;;;31.35;25.14;95374.84;5087781;28;20030;-91
2023/08/12 10:38:35;;;;;;;3.03;2.03;;;;;;;31.54;24.98;95379.41;5070557;28;20036;-90
2023/08/12 10:41:16;;;;;;;4.15;1.90;;;;;;;31.74;25.07;95381.31;5071059;28;20110;-91
2023/08/12 10:43:54;;;;;;;2.10;1.85;;;;;;;31.87;23.81;95377.53;5069073;28;20034;-91
2023/08/12 10:46:24;;;;;;;2.85;1.70;;;;;;;31.96;24.54;95374.13;5070887;28;20490;-91
2023/08/12 10:49:00;;;;;;;4.50;1.73;;;;;;;31.94;23.57;95371.88;5086576;28;20551;-91
2023/08/12 10:51:51;;;;;;;2.88;1.90;;;;;;;32.09;24.25;95361.78;5087628;28;20051;-91
2023/08/12 10:54:29;;;;;;;2.33;1.80;;;;;;;32.28;23.56;95361.38;5070593;28;20489;-91
2023/08/12 10:57:12;;;;;;;3.38;2.10;;;;;;;32.40;23.06;95360.44;5072136;28;20043;-92
2023/08/12 10:59:54;;;;;;;3.85;2.08;;;;;;;32.63;22.77;95362.44;5071414;28;20499;-91
2023/08/12 11:02:36;;;;;;;2.67;1.85;;;;;;;32.81;22.54;95347.00;5070513;28;20024;-91
2023/08/12 11:05:07;;;;;;;3.20;1.60;;;;;;;32.87;21.86;95358.94;5086435;28;20094;-91
2023/08/12 11:07:49;;;;;;;2.92;1.40;;;;;;;32.94;22.10;95355.31;5070622;28;20062;-91
2023/08/12 11:10:25;;;;;;;2.20;1.60;;;;;;;33.14;20.89;95350.63;5069679;28;20052;-91
2023/08/12 11:12:55;;;;;;;2.17;1.65;;;;;;;33.27;21.18;95344.69;5070732;28;20081;-91
2023/08/12 11:15:34;;;;;;;2.58;1.40;;;;;;;33.37;21.00;95346.88;5070319;28;20028;-91
2023/08/12 11:18:03;;;;;;;2.35;1.35;;;;;;;33.36;21.24;95345.38;5070274;28;20422;-91
2023/08/12 11:20:29;;;;;;;3.20;1.88;;;;;;;33.49;21.19;95342.25;5080715;28;20091;-90
2023/08/12 11:22:55;;;;;;;1.70;1.33;;;;;;;33.55;19.43;95346.41;5082906;28;20047;-90
2023/08/12 11:25:20;;;;;;;3.60;1.42;;;;;;;33.58;19.39;95338.03;5098460;28;20529;-91
2023/08/12 11:27:47;;;;;;;2.55;1.50;;;;;;;33.75;19.70;95349.47;5092920;28;20032;-91
2023/08/12 11:30:15;;;;;;;1.70;1.42;;;;;;;34.05;20.21;95334.19;5071157;28;20031;-91
2023/08/12 11:32:42;;;;;;;1.80;1.27;;;;;;;34.19;19.34;95329.69;5074498;28;20584;-91